Time;durP1;ratioP1;P1;durP2;ratioP2;P2;SDS_P1;SDS_P2;PMS_P1;PMS_P2;Temp;Humidity;BMP_temperature;BMP_pressure;BME280_temperature;BME280_humidity;BME280_pressure;Samples;Min_cycle;Max_cycle;Signal;HPM_P1;HPM_P2
2022/06/11 00:00:32;;;;;;;;;;;17.60;99.90;;;;;;5013644;28;19940;-79
2022/06/11 00:02:58;;;;;;;;;;;17.60;99.90;;;;;;5013466;28;19929;-79
2022/06/11 00:05:23;;;;;;;;;;;17.60;99.90;;;;;;5030377;28;19928;-79
2022/06/11 00:07:50;;;;;;;;;;;17.60;99.90;;;;;;5030151;28;20472;-78
2022/06/11 00:10:15;;;;;;;;;;;17.60;99.90;;;;;;5013476;28;19943;-79
2022/06/11 00:12:41;;;;;;;;;;;17.60;99.90;;;;;;5028296;28;19928;-79
2022/06/11 00:15:07;;;;;;;;;;;17.60;99.90;;;;;;5024920;28;19929;-79
2022/06/11 00:17:33;;;;;;;;;;;17.50;99.90;;;;;;5012499;28;20035;-79
2022/06/11 00:19:59;;;;;;;;;;;17.50;99.90;;;;;;5011038;28;19929;-78
2022/06/11 00:22:25;;;;;;;;;;;17.60;99.90;;;;;;5030353;28;19935;-79
2022/06/11 00:24:51;;;;;;;;;;;17.60;99.90;;;;;;5027882;28;19929;-79
2022/06/11 00:27:17;;;;;;;;;;;17.50;99.90;;;;;;5028617;28;19986;-78
2022/06/11 00:29:43;;;;;;;;;;;17.60;99.90;;;;;;5028070;28;19933;-78
2022/06/11 00:32:09;;;;;;;;;;;17.60;99.90;;;;;;5027385;28;19929;-78
2022/06/11 00:34:36;;;;;;;;;;;17.50;99.90;;;;;;5026064;28;19979;-79
2022/06/11 00:37:01;;;;;;;;;;;17.50;99.90;;;;;;5011739;28;20404;-79
2022/06/11 00:39:29;;;;;;;;;;;17.50;99.90;;;;;;5011010;28;19928;-79
2022/06/11 00:41:57;;;;;;;;;;;17.50;99.90;;;;;;5030384;28;19955;-78
2022/06/11 00:44:24;;;;;;;;;;;17.40;99.90;;;;;;5027905;28;20823;-78
2022/06/11 00:47:01;;;;;;;;;;;17.40;99.90;;;;;;5028733;28;19959;-78
2022/06/11 00:49:33;;;;;;;;;;;17.40;99.90;;;;;;5029997;28;19936;-79
2022/06/11 00:52:03;;;;;;;;;;;17.50;99.90;;;;;;5029898;28;19929;-78
2022/06/11 00:54:31;;;;;;;;;;;17.50;99.90;;;;;;5028778;28;19929;-78
2022/06/11 00:56:57;;;;;;;;;;;17.40;99.90;;;;;;5030035;28;19943;-79
2022/06/11 00:59:31;;;;;;;;;;;17.40;99.90;;;;;;5027469;28;19928;-78
2022/06/11 01:01:57;;;;;;;;;;;17.50;99.90;;;;;;5027130;28;19933;-78
2022/06/11 01:04:44;;;;;;;;;;;17.30;99.90;;;;;;4981183;28;20015;-78
2022/06/11 01:07:28;;;;;;;;;;;17.20;99.90;;;;;;4999793;28;19928;-79
2022/06/11 01:09:54;;;;;;;;;;;17.10;99.90;;;;;;5028959;28;19929;-78
2022/06/11 01:12:36;;;;;;;;;;;17.10;99.90;;;;;;5012377;28;19936;-78
2022/06/11 01:15:12;;;;;;;;;;;17.10;99.90;;;;;;5025731;28;19939;-78
2022/06/11 01:17:43;;;;;;;;;;;17.10;99.90;;;;;;5029778;28;19929;-79
2022/06/11 01:20:23;;;;;;;;;;;17.00;99.90;;;;;;5028545;28;19925;-79
2022/06/11 01:23:08;;;;;;;;;;;17.00;99.90;;;;;;5028453;28;19933;-78
2022/06/11 01:25:48;;;;;;;;;;;16.90;99.90;;;;;;5030362;28;20344;-79
2022/06/11 01:28:33;;;;;;;;;;;17.00;99.90;;;;;;5028560;28;19933;-79
2022/06/11 01:31:07;;;;;;;;;;;16.80;99.90;;;;;;5029616;28;20369;-79
2022/06/11 01:33:33;;;;;;;;;;;16.80;99.90;;;;;;5028161;28;19928;-79
2022/06/11 01:36:10;;;;;;;;;;;16.80;99.90;;;;;;5010015;28;20026;-79
2022/06/11 01:38:38;;;;;;;;;;;16.70;99.90;;;;;;5027643;28;20397;-79
2022/06/11 01:41:13;;;;;;;;;;;16.60;99.90;;;;;;5025697;28;20239;-79
2022/06/11 01:43:44;;;;;;;;;;;16.70;99.90;;;;;;5029420;28;19929;-79
2022/06/11 01:46:17;;;;;;;;;;;16.50;99.90;;;;;;5025985;28;19936;-80
2022/06/11 01:48:50;;;;;;;;;;;16.60;99.90;;;;;;5024269;28;19955;-79
2022/06/11 01:51:23;;;;;;;;;;;16.60;99.90;;;;;;5027597;28;19968;-79
2022/06/11 01:54:04;;;;;;;;;;;16.40;99.90;;;;;;5027267;28;19932;-79
2022/06/11 01:56:32;;;;;;;;;;;16.40;99.90;;;;;;5027403;28;20016;-79
2022/06/11 01:59:01;;;;;;;;;;;16.40;99.90;;;;;;5026853;28;20627;-79
2022/06/11 02:01:42;;;;;;;;;;;16.30;99.90;;;;;;5029149;28;19935;-79
2022/06/11 02:04:14;;;;;;;;;;;16.20;99.90;;;;;;5028095;28;19935;-79
2022/06/11 02:06:49;;;;;;;;;;;16.10;99.90;;;;;;5010536;28;19928;-78
2022/06/11 02:09:24;;;;;;;;;;;16.20;99.90;;;;;;5025610;28;19933;-78
2022/06/11 02:11:52;;;;;;;;;;;16.10;99.90;;;;;;5026921;28;19935;-78
2022/06/11 02:14:18;;;;;;;;;;;16.00;99.90;;;;;;5006590;28;19940;-78
2022/06/11 02:16:50;;;;;;;;;;;16.10;99.90;;;;;;5028269;28;19936;-78
2022/06/11 02:19:18;;;;;;;;;;;16.10;99.90;;;;;;5027245;28;19936;-78
2022/06/11 02:21:49;;;;;;;;;;;16.30;99.90;;;;;;5010444;28;19928;-78
2022/06/11 02:24:20;;;;;;;;;;;16.20;99.90;;;;;;5024499;28;20370;-78
2022/06/11 02:26:49;;;;;;;;;;;16.20;99.90;;;;;;5027592;28;19937;-80
2022/06/11 02:29:17;;;;;;;;;;;16.30;99.90;;;;;;5007708;28;19928;-78
2022/06/11 02:31:47;;;;;;;;;;;16.10;99.90;;;;;;5009828;28;19935;-79
2022/06/11 02:34:13;;;;;;;;;;;16.20;99.90;;;;;;5008600;28;19936;-79
2022/06/11 02:36:48;;;;;;;;;;;16.20;99.90;;;;;;5012734;28;19933;-78
2022/06/11 02:39:14;;;;;;;;;;;16.20;99.90;;;;;;5023686;28;19928;-79
2022/06/11 02:41:42;;;;;;;;;;;16.20;99.90;;;;;;5027580;28;20489;-78
2022/06/11 02:44:08;;;;;;;;;;;16.20;99.90;;;;;;5009306;28;20923;-79
2022/06/11 02:46:43;;;;;;;;;;;16.10;99.90;;;;;;5005979;28;20068;-78
2022/06/11 02:49:13;;;;;;;;;;;16.10;99.90;;;;;;5024979;28;19928;-79
2022/06/11 02:51:39;;;;;;;;;;;16.00;99.90;;;;;;5026050;28;19928;-79
2022/06/11 02:54:04;;;;;;;;;;;16.00;99.90;;;;;;5025259;28;20860;-79
2022/06/11 02:56:30;;;;;;;;;;;15.90;99.90;;;;;;4999556;28;19940;-80
2022/06/11 02:58:56;;;;;;;;;;;15.90;99.90;;;;;;5025112;28;19929;-79
2022/06/11 03:01:22;;;;;;;;;;;15.90;99.90;;;;;;5026060;28;19928;-79
2022/06/11 03:03:49;;;;;;;;;;;15.90;99.90;;;;;;5026350;28;19967;-78
2022/06/11 03:06:15;;;;;;;;;;;15.90;99.90;;;;;;5024600;28;19929;-78
2022/06/11 03:08:41;;;;;;;;;;;15.90;99.90;;;;;;5008086;28;19976;-79
2022/06/11 03:11:07;;;;;;;;;;;15.80;99.90;;;;;;5026740;28;20023;-79
2022/06/11 03:13:33;;;;;;;;;;;15.90;99.90;;;;;;5004716;28;19929;-79
2022/06/11 03:15:59;;;;;;;;;;;15.90;99.90;;;;;;5006749;28;19928;-78
2022/06/11 03:18:25;;;;;;;;;;;15.90;99.90;;;;;;5024322;28;19932;-79
2022/06/11 03:20:51;;;;;;;;;;;15.90;99.90;;;;;;5008187;28;19928;-80
2022/06/11 03:23:17;;;;;;;;;;;15.80;99.90;;;;;;5007090;28;19936;-79
2022/06/11 03:25:42;;;;;;;;;;;15.70;99.90;;;;;;5020722;28;19928;-80
2022/06/11 03:28:09;;;;;;;;;;;15.70;99.90;;;;;;4990614;28;19925;-79
2022/06/11 03:30:35;;;;;;;;;;;15.70;99.90;;;;;;4990963;28;19940;-79
2022/06/11 03:33:01;;;;;;;;;;;15.60;99.90;;;;;;5007990;28;19975;-79
2022/06/11 03:35:26;;;;;;;;;;;15.70;99.90;;;;;;4992483;28;20019;-79
2022/06/11 03:37:52;;;;;;;;;;;15.70;99.90;;;;;;4994190;28;19929;-78
2022/06/11 03:40:18;;;;;;;;;;;15.60;99.90;;;;;;4987627;28;20430;-79
2022/06/11 03:42:44;;;;;;;;;;;15.70;99.90;;;;;;5011545;28;20003;-79
2022/06/11 03:45:10;;;;;;;;;;;15.60;99.90;;;;;;5011854;28;19936;-78
2022/06/11 03:47:38;;;;;;;;;;;15.60;99.90;;;;;;4991635;28;19943;-79
2022/06/11 03:50:05;;;;;;;;;;;15.50;99.90;;;;;;4996301;28;20397;-79
2022/06/11 03:52:31;;;;;;;;;;;15.60;99.90;;;;;;5013175;28;20665;-79
2022/06/11 03:54:57;;;;;;;;;;;15.70;99.90;;;;;;5009961;28;19933;-78
2022/06/11 03:57:23;;;;;;;;;;;15.60;99.90;;;;;;5018198;28;19939;-78
2022/06/11 03:59:49;;;;;;;;;;;15.70;99.90;;;;;;5005460;28;20301;-78
2022/06/11 04:02:14;;;;;;;;;;;15.60;99.90;;;;;;5025416;28;19933;-78
2022/06/11 04:04:40;;;;;;;;;;;15.60;99.90;;;;;;5007436;28;20378;-78
2022/06/11 04:07:06;;;;;;;;;;;15.70;99.90;;;;;;5007612;28;19932;-78
2022/06/11 04:09:33;;;;;;;;;;;15.80;99.90;;;;;;5027620;28;19928;-78
2022/06/11 04:11:59;;;;;;;;;;;15.80;99.90;;;;;;4992516;28;19935;-78
2022/06/11 04:14:25;;;;;;;;;;;15.80;99.90;;;;;;5029409;28;19928;-78
2022/06/11 04:16:55;;;;;;;;;;;15.90;99.90;;;;;;5026398;28;20015;-79
2022/06/11 04:19:26;;;;;;;;;;;15.90;99.90;;;;;;4999378;28;20028;-79
2022/06/11 04:21:53;;;;;;;;;;;16.00;99.90;;;;;;5025345;28;20624;-78
2022/06/11 04:24:19;;;;;;;;;;;16.00;99.90;;;;;;5028972;28;19929;-78
2022/06/11 04:26:47;;;;;;;;;;;15.90;99.90;;;;;;4975217;28;19932;-79
2022/06/11 04:29:16;;;;;;;;;;;15.90;99.90;;;;;;5014593;28;19929;-79
2022/06/11 04:31:42;;;;;;;;;;;15.90;99.90;;;;;;5012368;28;19929;-77
2022/06/11 04:34:08;;;;;;;;;;;16.00;99.90;;;;;;5014584;28;19971;-79
2022/06/11 04:36:41;;;;;;;;;;;16.00;99.90;;;;;;5017870;28;19929;-79
2022/06/11 04:39:07;;;;;;;;;;;16.10;99.90;;;;;;4998812;28;19933;-79
2022/06/11 04:41:33;;;;;;;;;;;16.70;99.90;;;;;;4998856;28;20576;-79
2022/06/11 04:43:59;;;;;;;;;;;18.10;99.90;;;;;;4994569;28;19928;-79
2022/06/11 04:46:25;;;;;;;;;;;19.50;99.90;;;;;;5013944;28;19975;-80
2022/06/11 04:48:51;;;;;;;;;;;20.00;99.90;;;;;;4997298;28;19929;-79
2022/06/11 04:51:17;;;;;;;;;;;20.60;99.90;;;;;;5009904;28;19991;-81
2022/06/11 04:53:44;;;;;;;;;;;20.90;99.90;;;;;;5012869;28;20039;-81
2022/06/11 04:56:13;;;;;;;;;;;21.30;99.90;;;;;;5012843;28;19929;-78
2022/06/11 04:58:39;;;;;;;;;;;21.80;99.90;;;;;;5012426;28;19929;-80
2022/06/11 05:01:07;;;;;;;;;;;22.30;99.90;;;;;;5013006;28;20181;-80
2022/06/11 05:03:33;;;;;;;;;;;22.60;99.90;;;;;;4997288;28;19933;-80
2022/06/11 05:05:58;;;;;;;;;;;22.90;99.90;;;;;;5013615;28;19975;-81
2022/06/11 05:08:24;;;;;;;;;;;23.20;99.90;;;;;;5017555;28;19932;-80
2022/06/11 05:10:50;;;;;;;;;;;23.90;99.90;;;;;;5011320;28;20309;-80
2022/06/11 05:13:15;;;;;;;;;;;24.00;99.90;;;;;;5013379;28;19939;-80
2022/06/11 05:15:46;;;;;;;;;;;23.50;99.90;;;;;;5014329;28;20035;-79
2022/06/11 05:18:13;;;;;;;;;;;23.90;99.90;;;;;;4995939;28;19929;-84
2022/06/11 05:20:38;;;;;;;;;;;24.20;99.90;;;;;;5018788;28;20166;-81
2022/06/11 05:23:05;;;;;;;;;;;23.60;99.90;;;;;;5018029;28;20598;-81
2022/06/11 05:25:32;;;;;;;;;;;23.80;99.90;;;;;;5001318;28;20019;-81
2022/06/11 05:27:58;;;;;;;;;;;24.10;99.90;;;;;;5011844;28;21239;-83
2022/06/11 05:30:25;;;;;;;;;;;23.80;99.90;;;;;;5005382;28;19984;-81
2022/06/11 05:32:51;;;;;;;;;;;24.10;99.90;;;;;;5007574;28;19935;-81
2022/06/11 05:35:19;;;;;;;;;;;24.10;99.90;;;;;;5007674;28;19933;-80
2022/06/11 05:37:46;;;;;;;;;;;23.90;99.90;;;;;;5013003;28;19933;-81
2022/06/11 05:40:13;;;;;;;;;;;23.90;99.90;;;;;;5010937;28;19971;-81
2022/06/11 05:42:39;;;;;;;;;;;24.10;99.90;;;;;;4991381;28;20449;-81
2022/06/11 05:45:05;;;;;;;;;;;23.60;99.90;;;;;;5002893;28;19934;-81
2022/06/11 05:47:31;;;;;;;;;;;22.30;99.90;;;;;;4994674;28;19935;-81
2022/06/11 05:49:58;;;;;;;;;;;21.10;99.90;;;;;;4998753;28;19933;-80
2022/06/11 05:52:25;;;;;;;;;;;20.90;99.90;;;;;;4995517;28;19924;-82
2022/06/11 05:54:52;;;;;;;;;;;20.50;99.90;;;;;;4993224;28;19929;-82
2022/06/11 05:57:18;;;;;;;;;;;20.20;99.90;;;;;;4974563;28;20338;-82
2022/06/11 05:59:46;;;;;;;;;;;19.70;99.90;;;;;;4997026;28;20260;-82
2022/06/11 06:02:13;;;;;;;;;;;19.80;99.90;;;;;;4973619;28;19933;-80
2022/06/11 06:04:39;;;;;;;;;;;19.50;99.90;;;;;;4981840;28;20012;-81
2022/06/11 06:07:06;;;;;;;;;;;19.40;99.90;;;;;;4996662;28;19933;-80
2022/06/11 06:09:32;;;;;;;;;;;19.40;99.90;;;;;;4969860;28;20336;-79
2022/06/11 06:11:57;;;;;;;;;;;19.40;99.90;;;;;;4994422;28;19960;-80
2022/06/11 06:14:23;;;;;;;;;;;19.70;99.90;;;;;;4979039;28;20045;-78
2022/06/11 06:16:49;;;;;;;;;;;19.70;99.90;;;;;;4996615;28;20052;-80
2022/06/11 06:19:15;;;;;;;;;;;19.60;99.90;;;;;;4982017;28;20472;-81
2022/06/11 06:21:40;;;;;;;;;;;19.60;99.90;;;;;;4999174;28;19940;-81
2022/06/11 06:24:06;;;;;;;;;;;19.70;99.90;;;;;;4985623;28;20332;-81
2022/06/11 06:26:32;;;;;;;;;;;19.60;99.90;;;;;;4976484;28;20694;-81
2022/06/11 06:28:58;;;;;;;;;;;19.80;99.90;;;;;;4994230;28;19937;-80
2022/06/11 06:31:24;;;;;;;;;;;19.70;99.90;;;;;;4997291;28;19929;-80
2022/06/11 06:33:51;;;;;;;;;;;19.90;99.90;;;;;;4991919;28;19936;-81
2022/06/11 06:36:17;;;;;;;;;;;19.90;99.90;;;;;;4978656;28;19929;-80
2022/06/11 06:38:43;;;;;;;;;;;19.90;99.90;;;;;;5011248;28;19956;-80
2022/06/11 06:41:09;;;;;;;;;;;19.70;99.90;;;;;;5011368;28;19936;-82
2022/06/11 06:43:35;;;;;;;;;;;19.90;99.90;;;;;;5012386;28;19929;-80
2022/06/11 06:46:01;;;;;;;;;;;20.00;99.90;;;;;;4994095;28;19950;-80
2022/06/11 06:48:27;;;;;;;;;;;20.10;99.90;;;;;;5014483;28;20302;-81
2022/06/11 06:50:53;;;;;;;;;;;20.40;99.90;;;;;;5010027;28;20398;-81
2022/06/11 06:53:20;;;;;;;;;;;20.30;99.90;;;;;;5012996;28;20457;-79
2022/06/11 06:55:45;;;;;;;;;;;20.50;99.90;;;;;;4996638;28;19929;-79
2022/06/11 06:58:14;;;;;;;;;;;20.50;99.90;;;;;;5013787;28;19983;-81
2022/06/11 07:00:41;;;;;;;;;;;20.50;99.90;;;;;;5015101;28;19929;-80
2022/06/11 07:03:06;;;;;;;;;;;20.40;99.90;;;;;;4994170;28;20305;-80
2022/06/11 07:05:32;;;;;;;;;;;20.50;99.90;;;;;;4996464;28;19929;-81
2022/06/11 07:07:58;;;;;;;;;;;20.60;99.90;;;;;;5012047;28;19940;-80
2022/06/11 07:10:24;;;;;;;;;;;20.70;99.90;;;;;;5012423;28;20452;-82
2022/06/11 07:12:50;;;;;;;;;;;20.90;99.90;;;;;;5013444;28;20323;-80
2022/06/11 07:15:16;;;;;;;;;;;20.70;99.90;;;;;;5010265;28;19933;-79
2022/06/11 07:17:48;;;;;;;;;;;20.80;99.90;;;;;;4993487;28;19929;-80
2022/06/11 07:20:16;;;;;;;;;;;21.20;99.90;;;;;;5011076;28;20287;-81
2022/06/11 07:22:47;;;;;;;;;;;21.10;99.90;;;;;;5010374;28;19940;-79
2022/06/11 07:25:13;;;;;;;;;;;21.00;99.90;;;;;;4972788;28;20220;-79
2022/06/11 07:27:44;;;;;;;;;;;21.00;99.90;;;;;;4994310;28;19987;-79
2022/06/11 07:30:12;;;;;;;;;;;21.20;99.90;;;;;;4994271;28;20421;-80
2022/06/11 07:32:39;;;;;;;;;;;21.20;99.90;;;;;;4995799;28;19935;-80
2022/06/11 07:35:05;;;;;;;;;;;21.30;99.90;;;;;;4994832;28;19952;-78
2022/06/11 07:37:32;;;;;;;;;;;21.30;99.90;;;;;;4994706;28;19979;-78
2022/06/11 07:39:57;;;;;;;;;;;21.30;99.90;;;;;;5012600;28;20020;-79
2022/06/11 07:42:24;;;;;;;;;;;21.50;99.90;;;;;;5015419;28;20388;-79
2022/06/11 07:44:49;;;;;;;;;;;21.70;99.90;;;;;;5013083;28;19929;-80
2022/06/11 07:47:53;;;;;;;;;;;21.40;99.90;;;;;;5015113;28;20461;-78
2022/06/11 07:50:01;;;;;;;;;;;21.10;99.90;;;;;;4998688;28;20895;-80
2022/06/11 07:52:26;;;;;;;;;;;21.40;99.90;;;;;;5001220;28;19940;-79
2022/06/11 07:54:52;;;;;;;;;;;21.50;99.90;;;;;;5020454;28;20568;-79
2022/06/11 07:57:17;;;;;;;;;;;21.70;99.90;;;;;;4999768;28;19928;-80
2022/06/11 07:59:44;;;;;;;;;;;21.90;99.90;;;;;;5000003;28;20503;-80
2022/06/11 08:02:09;;;;;;;;;;;22.10;99.90;;;;;;5014898;28;19939;-81
2022/06/11 08:04:35;;;;;;;;;;;22.10;99.90;;;;;;5011186;28;19933;-80
2022/06/11 08:07:01;;;;;;;;;;;22.20;99.90;;;;;;5011995;28;19929;-80
2022/06/11 08:09:27;;;;;;;;;;;22.20;99.90;;;;;;5008553;28;19935;-84
2022/06/11 08:11:52;;;;;;;;;;;22.40;99.90;;;;;;4979188;28;20474;-81
2022/06/11 08:14:18;;;;;;;;;;;22.30;99.90;;;;;;5015524;28;20516;-80
2022/06/11 08:16:43;;;;;;;;;;;22.50;99.90;;;;;;4974143;28;20530;-82
2022/06/11 08:19:09;;;;;;;;;;;22.30;99.90;;;;;;4987410;28;20082;-81
2022/06/11 08:21:35;;;;;;;;;;;22.50;99.90;;;;;;5004178;28;19929;-81
2022/06/11 08:24:00;;;;;;;;;;;22.80;99.90;;;;;;4994805;28;19929;-77
2022/06/11 08:26:27;;;;;;;;;;;22.40;99.90;;;;;;5010820;28;20325;-80
2022/06/11 08:28:53;;;;;;;;;;;22.20;99.90;;;;;;5005879;28;20484;-80
2022/06/11 08:31:18;;;;;;;;;;;22.60;99.90;;;;;;5011383;28;19997;-80
2022/06/11 08:33:44;;;;;;;;;;;22.40;99.90;;;;;;4996404;28;20006;-79
2022/06/11 08:36:11;;;;;;;;;;;22.20;99.90;;;;;;4979691;28;20214;-80
2022/06/11 08:38:37;;;;;;;;;;;22.00;99.90;;;;;;5013657;28;19940;-81
2022/06/11 08:41:08;;;;;;;;;;;22.00;99.90;;;;;;4985926;28;19933;-80
2022/06/11 08:43:36;;;;;;;;;;;22.20;99.90;;;;;;5011985;28;20859;-80
2022/06/11 08:46:03;;;;;;;;;;;22.40;99.90;;;;;;5013342;28;19932;-79
2022/06/11 08:48:31;;;;;;;;;;;22.60;99.90;;;;;;5000776;28;20951;-78
2022/06/11 08:51:16;;;;;;;;;;;23.00;99.90;;;;;;5011206;28;19929;-80
2022/06/11 08:53:41;;;;;;;;;;;23.00;99.90;;;;;;5012063;28;19943;-76
2022/06/11 08:56:13;;;;;;;;;;;23.50;99.90;;;;;;5004836;28;19928;-79
2022/06/11 08:58:39;;;;;;;;;;;23.10;99.90;;;;;;4989127;28;19928;-81
2022/06/11 09:01:24;;;;;;;;;;;23.30;99.90;;;;;;4992612;28;19925;-81
2022/06/11 09:03:59;;;;;;;;;;;23.10;99.90;;;;;;5018291;28;20031;-79
2022/06/11 09:06:31;;;;;;;;;;;22.60;99.90;;;;;;5016144;28;19936;-80
2022/06/11 09:09:05;;;;;;;;;;;22.40;99.90;;;;;;5015488;28;19941;-78
2022/06/11 09:11:37;;;;;;;;;;;22.50;99.90;;;;;;5016565;28;19928;-79
2022/06/11 09:14:23;;;;;;;;;;;23.00;99.90;;;;;;5015040;28;19935;-79
2022/06/11 09:17:04;;;;;;;;;;;22.20;99.90;;;;;;4998232;28;19935;-78
2022/06/11 09:19:29;;;;;;;;;;;21.70;99.90;;;;;;5002604;28;20353;-81
2022/06/11 09:22:14;;;;;;;;;;;22.30;99.90;;;;;;5017429;28;19937;-80
2022/06/11 09:24:46;;;;;;;;;;;22.30;99.90;;;;;;5019996;28;20672;-78
2022/06/11 09:27:22;;;;;;;;;;;22.10;99.90;;;;;;5008633;28;19933;-81
2022/06/11 09:30:01;;;;;;;;;;;22.60;99.90;;;;;;5001718;28;19933;-79
2022/06/11 09:32:30;;;;;;;;;;;22.90;99.90;;;;;;4998318;28;20031;-81
2022/06/11 09:35:10;;;;;;;;;;;22.90;99.90;;;;;;4999860;28;19936;-78
2022/06/11 09:37:38;;;;;;;;;;;23.00;99.90;;;;;;4963308;28;19940;-80
2022/06/11 09:40:23;;;;;;;;;;;22.40;99.90;;;;;;5002338;28;20445;-81
2022/06/11 09:43:00;;;;;;;;;;;22.90;99.90;;;;;;5006302;28;19951;-81
2022/06/11 09:45:46;;;;;;;;;;;23.40;99.90;;;;;;5002354;28;19939;-82
2022/06/11 09:48:25;;;;;;;;;;;23.10;99.90;;;;;;4993481;28;20386;-80
2022/06/11 09:50:50;;;;;;;;;;;23.00;99.90;;;;;;5004032;28;20408;-79
2022/06/11 09:53:34;;;;;;;;;;;23.00;99.90;;;;;;5007426;28;19932;-80
2022/06/11 09:56:18;;;;;;;;;;;22.90;99.90;;;;;;4985114;28;19932;-80
2022/06/11 09:59:03;;;;;;;;;;;23.20;99.90;;;;;;4985747;28;19929;-82
2022/06/11 10:01:43;;;;;;;;;;;23.90;99.90;;;;;;5004909;28;19936;-80
2022/06/11 10:04:14;;;;;;;;;;;24.10;99.90;;;;;;5007204;28;19956;-82
2022/06/11 10:06:39;;;;;;;;;;;23.90;99.90;;;;;;4980808;28;20305;-80
2022/06/11 10:09:10;;;;;;;;;;;23.80;99.90;;;;;;5001255;28;19944;-81
2022/06/11 10:11:39;;;;;;;;;;;24.00;99.90;;;;;;4999075;28;19931;-77
2022/06/11 10:14:29;;;;;;;;;;;24.10;99.90;;;;;;5005088;28;20060;-78
2022/06/11 10:17:01;;;;;;;;;;;23.50;99.90;;;;;;4980953;28;20428;-80
2022/06/11 10:19:37;;;;;;;;;;;23.60;99.90;;;;;;5000019;28;19939;-80
2022/06/11 10:22:15;;;;;;;;;;;23.70;99.90;;;;;;4999255;28;19928;-79
2022/06/11 10:24:46;;;;;;;;;;;24.10;99.90;;;;;;4987794;28;19991;-80
2022/06/11 10:27:14;;;;;;;;;;;24.10;99.90;;;;;;4985298;28;20494;-80
2022/06/11 10:30:02;;;;;;;;;;;23.80;99.90;;;;;;5000715;28;20031;-79
2022/06/11 10:32:36;;;;;;;;;;;23.80;99.90;;;;;;5013406;28;20782;-81
2022/06/11 10:35:07;;;;;;;;;;;24.00;99.90;;;;;;5013911;28;20793;-80
2022/06/11 10:37:35;;;;;;;;;;;24.20;99.90;;;;;;4997975;28;19932;-81
2022/06/11 10:40:19;;;;;;;;;;;24.20;99.90;;;;;;5013827;28;19933;-79
2022/06/11 10:42:53;;;;;;;;;;;24.50;99.90;;;;;;5012789;28;20353;-82
2022/06/11 10:45:19;;;;;;;;;;;24.80;99.90;;;;;;5009948;28;20851;-79
2022/06/11 10:47:50;;;;;;;;;;;25.20;99.90;;;;;;4992791;28;20326;-81
2022/06/11 10:50:23;;;;;;;;;;;25.00;99.90;;;;;;5001028;28;19933;-82
2022/06/11 10:52:53;;;;;;;;;;;24.90;99.90;;;;;;4987109;28;19930;-80
2022/06/11 10:55:24;;;;;;;;;;;25.10;99.90;;;;;;4980810;28;20217;-82
2022/06/11 10:57:51;;;;;;;;;;;25.40;99.90;;;;;;4996629;28;19939;-80
2022/06/11 11:00:17;;;;;;;;;;;25.50;99.90;;;;;;4983260;28;19932;-83
2022/06/11 11:02:46;;;;;;;;;;;25.40;99.90;;;;;;4979915;28;19990;-83
2022/06/11 11:05:13;;;;;;;;;;;25.10;99.90;;;;;;4995473;28;20463;-79
2022/06/11 11:07:55;;;;;;;;;;;25.30;99.90;;;;;;4977815;28;20024;-82
2022/06/11 11:10:40;;;;;;;;;;;25.40;99.90;;;;;;4995333;28;19951;-82
2022/06/11 11:13:12;;;;;;;;;;;25.50;99.90;;;;;;4971581;28;20189;-77
2022/06/11 11:15:39;;;;;;;;;;;25.40;99.90;;;;;;5004494;28;19933;-81
2022/06/11 11:18:10;;;;;;;;;;;25.10;99.90;;;;;;5001511;28;19928;-80
2022/06/11 11:20:39;;;;;;;;;;;25.10;99.90;;;;;;4992835;28;19939;-82
2022/06/11 11:23:06;;;;;;;;;;;25.30;99.90;;;;;;5005869;28;19929;-83
2022/06/11 11:25:53;;;;;;;;;;;24.90;99.90;;;;;;5003127;28;19933;-81
2022/06/11 11:28:27;;;;;;;;;;;25.00;99.90;;;;;;4991563;28;20137;-78
2022/06/11 11:31:01;;;;;;;;;;;25.20;99.90;;;;;;5009530;28;20047;-82
2022/06/11 11:33:29;;;;;;;;;;;25.40;99.90;;;;;;5011075;28;19933;-81
2022/06/11 11:36:09;;;;;;;;;;;25.20;99.90;;;;;;4992685;28;20382;-80
2022/06/11 11:38:35;;;;;;;;;;;25.10;99.90;;;;;;4995418;28;19983;-80
2022/06/11 11:41:02;;;;;;;;;;;25.40;99.90;;;;;;4996136;28;19928;-79
2022/06/11 11:43:39;;;;;;;;;;;25.70;99.90;;;;;;5014095;28;19935;-81
2022/06/11 11:46:12;;;;;;;;;;;24.80;99.90;;;;;;5014711;28;20944;-80
2022/06/11 11:48:46;;;;;;;;;;;25.00;99.90;;;;;;5011512;28;19936;-81
2022/06/11 11:51:18;;;;;;;;;;;25.30;99.90;;;;;;5009429;28;20229;-79
2022/06/11 11:53:51;;;;;;;;;;;25.20;99.90;;;;;;5014108;28;20700;-81
2022/06/11 11:56:23;;;;;;;;;;;25.20;99.90;;;;;;5012291;28;19932;-81
2022/06/11 11:58:51;;;;;;;;;;;25.20;99.90;;;;;;5006333;28;19929;-79
2022/06/11 12:01:17;;;;;;;;;;;25.70;99.90;;;;;;4999428;28;20968;-80
2022/06/11 12:03:47;;;;;;;;;;;25.60;99.90;;;;;;5006655;28;20540;-80
2022/06/11 12:06:15;;;;;;;;;;;25.70;99.90;;;;;;5007824;28;19936;-80
2022/06/11 12:08:42;;;;;;;;;;;26.10;99.90;;;;;;5007147;28;19983;-79
2022/06/11 12:11:18;;;;;;;;;;;26.30;99.90;;;;;;4990107;28;19998;-80
2022/06/11 12:13:45;;;;;;;;;;;26.70;99.90;;;;;;4983329;28;19928;-81
2022/06/11 12:16:27;;;;;;;;;;;26.60;99.90;;;;;;5001270;28;20160;-81
2022/06/11 12:18:55;;;;;;;;;;;26.50;99.90;;;;;;5002077;28;19932;-80
2022/06/11 12:21:23;;;;;;;;;;;26.40;99.90;;;;;;4970144;28;19939;-78
2022/06/11 12:23:58;;;;;;;;;;;26.30;99.90;;;;;;4998735;28;20896;-78
2022/06/11 12:26:28;;;;;;;;;;;26.50;99.90;;;;;;4988069;28;19990;-81
2022/06/11 12:29:14;;;;;;;;;;;26.00;99.90;;;;;;5000672;28;19925;-79
2022/06/11 12:31:40;;;;;;;;;;;25.90;99.90;;;;;;4993460;28;20650;-81
2022/06/11 12:34:14;;;;;;;;;;;25.90;99.90;;;;;;5011763;28;19929;-80
2022/06/11 12:36:45;;;;;;;;;;;26.10;99.90;;;;;;4997106;28;19932;-76
2022/06/11 12:39:11;;;;;;;;;;;26.20;99.90;;;;;;5014322;28;20378;-79
2022/06/11 12:41:43;;;;;;;;;;;25.90;98.60;;;;;;5010115;28;19939;-79
2022/06/11 12:44:28;;;;;;;;;;;25.40;98.50;;;;;;5014776;28;19940;-79
2022/06/11 12:46:59;;;;;;;;;;;25.30;99.90;;;;;;5017504;28;19981;-78
2022/06/11 12:49:31;;;;;;;;;;;25.50;99.90;;;;;;5015311;28;20687;-78
2022/06/11 12:52:03;;;;;;;;;;;25.10;99.90;;;;;;5015343;28;20514;-79
2022/06/11 12:54:28;;;;;;;;;;;24.70;99.90;;;;;;5015385;28;20306;-76
2022/06/11 12:57:13;;;;;;;;;;;24.60;99.90;;;;;;5018179;28;19933;-80
2022/06/11 12:59:44;;;;;;;;;;;24.80;99.90;;;;;;4995180;28;19928;-80
2022/06/11 13:02:19;;;;;;;;;;;24.90;99.90;;;;;;5026634;28;20090;-80
2022/06/11 13:05:03;;;;;;;;;;;24.90;99.90;;;;;;5031768;28;19929;-79
2022/06/11 13:07:41;;;;;;;;;;;24.50;99.90;;;;;;5022320;28;19960;-77
2022/06/11 13:10:23;;;;;;;;;;;24.90;99.90;;;;;;5020503;28;19932;-78
2022/06/11 13:12:56;;;;;;;;;;;25.50;99.90;;;;;;5003409;28;19925;-79
2022/06/11 13:15:48;;;;;;;;;;;25.80;99.90;;;;;;5030879;28;19964;-79
2022/06/11 13:18:35;;;;;;;;;;;25.50;99.90;;;;;;5029787;28;19936;-80
2022/06/11 13:21:13;;;;;;;;;;;25.20;99.90;;;;;;5030704;28;19929;-79
2022/06/11 13:23:41;;;;;;;;;;;25.90;99.90;;;;;;5032130;28;20019;-78
2022/06/11 13:26:23;;;;;;;;;;;25.90;99.90;;;;;;5019628;28;19932;-80
2022/06/11 13:28:48;;;;;;;;;;;26.00;99.90;;;;;;5030885;28;20550;-77
2022/06/11 13:31:17;;;;;;;;;;;25.70;99.90;;;;;;5017006;28;20500;-78
2022/06/11 13:33:58;;;;;;;;;;;25.40;99.90;;;;;;5020537;28;20404;-79
2022/06/11 13:36:37;;;;;;;;;;;25.20;98.70;;;;;;5002911;28;20531;-80
2022/06/11 13:39:15;;;;;;;;;;;25.10;99.90;;;;;;5021154;28;19929;-79
2022/06/11 13:41:52;;;;;;;;;;;25.40;99.90;;;;;;5019970;28;20486;-78
2022/06/11 13:44:23;;;;;;;;;;;25.50;99.90;;;;;;4999019;28;19951;-78
2022/06/11 13:46:58;;;;;;;;;;;26.30;99.90;;;;;;5018900;28;19935;-79
2022/06/11 13:49:31;;;;;;;;;;;26.10;99.90;;;;;;5015846;28;19935;-80
2022/06/11 13:52:05;;;;;;;;;;;25.90;99.90;;;;;;5017205;28;21537;-77
2022/06/11 13:57:23;;;;;;;;;;;25.90;99.90;;;;;;5015068;28;20040;-79
2022/06/11 14:00:04;;;;;;;;;;;25.50;99.90;;;;;;5018901;28;20562;-78
2022/06/11 14:02:39;;;;;;;;;;;25.00;99.90;;;;;;5014355;28;19978;-78
2022/06/11 14:05:06;;;;;;;;;;;25.00;99.90;;;;;;4997079;28;19980;-77
2022/06/11 14:07:33;;;;;;;;;;;25.40;99.90;;;;;;5015374;28;20027;-78
2022/06/11 14:10:24;;;;;;;;;;;25.90;99.90;;;;;;5018039;28;21023;-77
2022/06/11 14:12:54;;;;;;;;;;;26.20;99.90;;;;;;5017082;28;19936;-80
2022/06/11 14:15:19;;;;;;;;;;;25.70;99.90;;;;;;5016469;28;19929;-78
2022/06/11 14:17:48;;;;;;;;;;;26.20;99.90;;;;;;5023648;28;19951;-79
2022/06/11 14:20:19;;;;;;;;;;;26.40;99.80;;;;;;5029242;28;20409;-78
2022/06/11 14:22:46;;;;;;;;;;;26.20;98.90;;;;;;5030634;28;19928;-78
2022/06/11 14:25:33;;;;;;;;;;;26.10;99.90;;;;;;5031892;28;19932;-79
2022/06/11 14:28:19;;;;;;;;;;;26.40;99.90;;;;;;5030488;28;19928;-80
2022/06/11 14:30:48;;;;;;;;;;;26.20;99.90;;;;;;5028771;28;20678;-78
2022/06/11 14:33:13;;;;;;;;;;;25.70;99.90;;;;;;5012356;28;20011;-78
2022/06/11 14:35:48;;;;;;;;;;;26.20;99.90;;;;;;5019993;28;20740;-79